createdAt,value
2022-09-11T00:00:06.803Z,0.00
2022-09-11T00:01:06.298Z,0.00
2022-09-11T00:02:06.437Z,0.00
2022-09-11T00:03:06.629Z,0.00
2022-09-11T00:04:06.777Z,0.00
2022-09-11T00:05:06.918Z,0.00
2022-09-11T00:06:07.085Z,0.00
2022-09-11T00:07:07.802Z,0.00
2022-09-11T00:08:07.454Z,0.00
2022-09-11T00:09:07.593Z,0.00
2022-09-11T00:10:08.309Z,0.00
2022-09-11T00:11:08.315Z,0.00
2022-09-11T00:12:08.086Z,0.00
2022-09-11T00:13:08.797Z,0.00
2022-09-11T00:14:09.429Z,0.00
2022-09-11T00:15:08.540Z,0.00
2022-09-11T00:16:08.691Z,0.00
2022-09-11T00:17:08.872Z,0.00
2022-09-11T00:18:09.034Z,0.00
2022-09-11T00:19:09.322Z,0.00
2022-09-11T00:20:09.342Z,0.00
2022-09-11T00:21:09.492Z,0.00
2022-09-11T00:22:09.661Z,0.00
2022-09-11T00:23:09.823Z,0.00
2022-09-11T00:24:10.107Z,0.00
2022-09-11T00:25:10.711Z,0.00
2022-09-11T00:26:10.347Z,0.00
2022-09-11T00:27:11.311Z,0.00
2022-09-11T00:28:10.661Z,0.00
2022-09-11T00:29:10.829Z,0.00
2022-09-11T00:30:11.003Z,0.00
2022-09-11T00:31:11.233Z,0.00
2022-09-11T00:32:11.416Z,0.00
2022-09-11T00:33:11.579Z,0.00
2022-09-11T00:34:11.747Z,0.00
2022-09-11T00:35:11.923Z,0.00
2022-09-11T00:36:12.322Z,0.00
2022-09-11T00:37:12.222Z,0.00
2022-09-11T00:38:17.145Z,0.00
2022-09-11T00:39:15.314Z,0.00
2022-09-11T00:40:12.810Z,0.00
2022-09-11T00:41:12.987Z,0.00
2022-09-11T00:42:13.327Z,0.00
2022-09-11T00:43:13.350Z,0.00
2022-09-11T00:44:13.502Z,0.00
2022-09-11T00:45:13.640Z,0.00
2022-09-11T00:46:13.784Z,0.00
2022-09-11T00:47:13.959Z,0.00
2022-09-11T00:48:14.127Z,0.00
2022-09-11T00:49:14.295Z,0.00
2022-09-11T00:50:14.440Z,0.00
2022-09-11T00:51:14.566Z,0.00
2022-09-11T00:52:14.737Z,0.00
2022-09-11T00:53:14.912Z,0.00
2022-09-11T00:54:15.091Z,0.00
2022-09-11T00:55:15.255Z,0.00
2022-09-11T00:56:16.317Z,0.00
2022-09-11T00:57:15.579Z,0.00
2022-09-11T00:58:16.319Z,0.00
2022-09-11T00:59:15.873Z,0.00
2022-09-11T01:00:16.033Z,0.00
2022-09-11T01:01:16.876Z,0.00
2022-09-11T01:02:16.471Z,0.00
2022-09-11T01:03:17.321Z,0.00
2022-09-11T01:04:16.733Z,0.00
2022-09-11T01:05:17.822Z,0.00
2022-09-11T01:06:17.824Z,0.00
2022-09-11T01:07:17.207Z,0.00
2022-09-11T01:08:17.348Z,0.00
2022-09-11T01:09:17.495Z,0.00
2022-09-11T01:10:17.676Z,0.00
2022-09-11T01:11:18.831Z,0.00
2022-09-11T01:12:18.827Z,0.00
2022-09-11T01:13:18.197Z,0.00
2022-09-11T01:14:19.327Z,0.00
2022-09-11T01:15:18.605Z,0.00
2022-09-11T01:16:18.796Z,0.00
2022-09-11T01:17:18.941Z,0.00
2022-09-11T01:18:19.082Z,0.00
2022-09-11T01:19:20.221Z,0.00
2022-09-11T01:20:19.375Z,0.00
2022-09-11T01:21:19.500Z,0.00
2022-09-11T01:22:20.327Z,0.00
2022-09-11T01:23:19.817Z,0.00
2022-09-11T01:24:20.833Z,0.00
2022-09-11T01:25:20.106Z,0.00
2022-09-11T01:26:20.249Z,0.00
2022-09-11T01:27:20.842Z,0.00
2022-09-11T01:28:21.326Z,0.00
2022-09-11T01:29:21.331Z,0.00
2022-09-11T01:30:20.997Z,0.00
2022-09-11T01:31:21.210Z,0.00
2022-09-11T01:32:21.404Z,0.00
2022-09-11T01:33:21.569Z,0.00
2022-09-11T01:34:21.729Z,0.00
2022-09-11T01:35:22.831Z,0.00
2022-09-11T01:36:22.113Z,0.00
2022-09-11T01:37:22.267Z,0.00
2022-09-11T01:38:22.429Z,0.00
2022-09-11T01:39:22.566Z,0.00
2022-09-11T01:40:22.687Z,0.00
2022-09-11T01:41:22.860Z,0.00
2022-09-11T01:42:23.833Z,0.00
2022-09-11T01:43:23.165Z,0.00
2022-09-11T01:44:23.383Z,0.00
2022-09-11T01:45:23.547Z,0.00
2022-09-11T01:46:23.737Z,0.00
2022-09-11T01:47:23.869Z,0.00
2022-09-11T01:48:24.836Z,0.00
2022-09-11T01:49:24.192Z,0.00
2022-09-11T01:50:24.419Z,0.00
2022-09-11T01:51:24.558Z,0.00
2022-09-11T01:52:24.663Z,0.00
2022-09-11T01:53:24.805Z,0.00
2022-09-11T01:54:24.935Z,0.00
2022-09-11T01:55:25.059Z,0.00
2022-09-11T01:56:25.199Z,0.00
2022-09-11T01:57:25.836Z,0.00
2022-09-11T01:58:25.852Z,0.00
2022-09-11T01:59:25.585Z,0.00
2022-09-11T02:00:26.756Z,0.00
2022-09-11T02:01:26.836Z,0.00
2022-09-11T02:02:26.064Z,0.00
2022-09-11T02:03:26.227Z,0.00
2022-09-11T02:04:27.339Z,0.00
2022-09-11T02:05:26.567Z,0.00
2022-09-11T02:06:26.712Z,0.00
2022-09-11T02:07:26.889Z,0.00
2022-09-11T02:08:27.840Z,0.00
2022-09-11T02:09:27.206Z,0.00
2022-09-11T02:10:27.362Z,0.00
2022-09-11T02:11:27.510Z,0.00
2022-09-11T02:12:27.654Z,0.00
2022-09-11T02:13:28.025Z,0.00
2022-09-11T02:14:28.930Z,0.00
2022-09-11T02:15:28.086Z,0.00
2022-09-11T02:16:28.280Z,0.00
2022-09-11T02:17:28.436Z,0.00
2022-09-11T02:18:28.571Z,0.00
2022-09-11T02:19:28.715Z,0.00
2022-09-11T02:20:28.866Z,0.00
2022-09-11T02:21:29.004Z,0.00
2022-09-11T02:22:29.162Z,0.00
2022-09-11T02:23:29.326Z,0.00
2022-09-11T02:24:30.339Z,0.00
2022-09-11T02:25:29.598Z,0.00
2022-09-11T02:26:29.722Z,0.00
2022-09-11T02:27:29.880Z,0.00
2022-09-11T02:28:30.013Z,0.00
2022-09-11T02:29:30.136Z,0.00
2022-09-11T02:30:31.363Z,0.00
2022-09-11T02:31:31.384Z,0.00
2022-09-11T02:32:31.377Z,0.00
2022-09-11T02:33:30.742Z,0.00
2022-09-11T02:34:30.880Z,0.00
2022-09-11T02:35:31.053Z,0.00
2022-09-11T02:36:31.856Z,0.00
2022-09-11T02:37:31.349Z,0.00
2022-09-11T02:38:31.498Z,0.00
2022-09-11T02:39:32.347Z,0.00
2022-09-11T02:40:31.835Z,0.00
2022-09-11T02:41:31.969Z,0.00
2022-09-11T02:42:32.853Z,0.00
2022-09-11T02:43:32.883Z,0.00
2022-09-11T02:44:33.351Z,0.00
2022-09-11T02:45:32.768Z,0.00
2022-09-11T02:46:33.365Z,0.00
2022-09-11T02:47:33.367Z,0.00
2022-09-11T02:48:33.854Z,0.00
2022-09-11T02:49:33.467Z,0.00
2022-09-11T02:50:33.599Z,0.00
2022-09-11T02:51:33.837Z,0.00
2022-09-11T02:52:33.985Z,0.00
2022-09-11T02:53:34.097Z,0.00
2022-09-11T02:54:34.221Z,0.00
2022-09-11T02:55:34.855Z,0.00
2022-09-11T02:56:35.357Z,0.00
2022-09-11T02:57:34.717Z,0.00
2022-09-11T02:58:34.827Z,0.00
2022-09-11T02:59:34.942Z,0.00
2022-09-11T03:00:35.441Z,0.00
2022-09-11T03:01:35.853Z,0.00
2022-09-11T03:02:35.566Z,0.00
2022-09-11T03:03:35.802Z,0.00
2022-09-11T03:04:35.930Z,0.00
2022-09-11T03:05:36.368Z,0.00
2022-09-11T03:06:36.339Z,0.00
2022-09-11T03:07:36.455Z,0.00
2022-09-11T03:08:36.602Z,0.00
2022-09-11T03:09:36.743Z,0.00
2022-09-11T03:10:36.931Z,0.00
2022-09-11T03:11:37.064Z,0.00
2022-09-11T03:12:37.859Z,0.00
2022-09-11T03:13:37.905Z,0.00
2022-09-11T03:14:38.381Z,0.00
2022-09-11T03:15:37.749Z,0.00
2022-09-11T03:16:37.943Z,0.00
2022-09-11T03:17:38.015Z,0.00
2022-09-11T03:18:38.148Z,0.00
2022-09-11T03:19:38.292Z,0.00
2022-09-11T03:20:38.436Z,0.00
2022-09-11T03:21:38.575Z,0.00
2022-09-11T03:22:38.735Z,0.00
2022-09-11T03:23:38.964Z,0.00
2022-09-11T03:24:39.044Z,0.00
2022-09-11T03:25:39.866Z,0.00
2022-09-11T03:26:39.861Z,0.00
2022-09-11T03:27:39.885Z,0.00
2022-09-11T03:28:39.750Z,0.00
2022-09-11T03:29:40.866Z,0.00
2022-09-11T03:30:40.114Z,0.00
2022-09-11T03:31:40.311Z,0.00
2022-09-11T03:32:41.374Z,0.00
2022-09-11T03:33:41.372Z,0.00
2022-09-11T03:34:40.780Z,0.00
2022-09-11T03:35:41.375Z,0.00
2022-09-11T03:36:41.867Z,0.00
2022-09-11T03:37:41.379Z,0.00
2022-09-11T03:38:41.565Z,0.00
2022-09-11T03:39:41.911Z,0.00
2022-09-11T03:40:41.913Z,0.00
2022-09-11T03:41:42.064Z,0.00
2022-09-11T03:42:42.178Z,0.00
2022-09-11T03:43:42.413Z,0.00
2022-09-11T03:44:43.369Z,0.00
2022-09-11T03:45:42.776Z,0.00
2022-09-11T03:46:42.930Z,0.00
2022-09-11T03:47:43.069Z,0.00
2022-09-11T03:48:43.190Z,0.00
2022-09-11T03:49:43.309Z,0.00
2022-09-11T03:50:43.462Z,0.00
2022-09-11T03:51:43.885Z,0.00
2022-09-11T03:52:43.777Z,0.00
2022-09-11T03:53:43.924Z,0.00
2022-09-11T03:54:44.053Z,0.00
2022-09-11T03:55:44.876Z,0.00
2022-09-11T03:56:44.375Z,0.00
2022-09-11T03:57:45.378Z,0.00
2022-09-11T03:58:44.717Z,0.00
2022-09-11T03:59:45.879Z,0.00
2022-09-11T04:00:45.910Z,0.00
2022-09-11T04:01:45.396Z,0.00
2022-09-11T04:02:45.443Z,0.00
2022-09-11T04:03:45.579Z,0.00
2022-09-11T04:04:45.707Z,0.00
2022-09-11T04:05:45.846Z,0.00
2022-09-11T04:06:46.879Z,0.00
2022-09-11T04:07:46.111Z,0.00
2022-09-11T04:08:46.233Z,0.00
2022-09-11T04:09:46.466Z,0.00
2022-09-11T04:10:46.624Z,0.00
2022-09-11T04:11:46.743Z,0.00
2022-09-11T04:12:46.862Z,0.00
2022-09-11T04:13:47.000Z,0.00
2022-09-11T04:14:47.876Z,0.00
2022-09-11T04:15:47.359Z,0.00
2022-09-11T04:16:47.564Z,0.00
2022-09-11T04:17:47.698Z,0.00
2022-09-11T04:18:47.942Z,0.00
2022-09-11T04:19:48.883Z,0.00
2022-09-11T04:20:48.230Z,0.00
2022-09-11T04:21:48.378Z,0.00
2022-09-11T04:22:48.513Z,0.00
2022-09-11T04:23:49.379Z,0.00
2022-09-11T04:24:49.005Z,0.00
2022-09-11T04:25:49.881Z,0.00
2022-09-11T04:26:49.349Z,0.00
2022-09-11T04:27:49.483Z,0.00
2022-09-11T04:28:49.642Z,0.00
2022-09-11T04:29:49.831Z,0.00
2022-09-11T04:30:50.009Z,0.00
2022-09-11T04:31:50.920Z,0.00
2022-09-11T04:32:50.881Z,0.00
2022-09-11T04:33:50.516Z,0.00
2022-09-11T04:34:50.667Z,0.00
2022-09-11T04:35:50.835Z,0.00
2022-09-11T04:36:50.962Z,0.00
2022-09-11T04:37:51.886Z,0.00
2022-09-11T04:38:51.372Z,0.00
2022-09-11T04:39:51.537Z,0.00
2022-09-11T04:40:51.692Z,0.00
2022-09-11T04:41:51.904Z,0.00
2022-09-11T04:42:52.890Z,0.00
2022-09-11T04:43:52.889Z,0.00
2022-09-11T04:44:52.510Z,0.00
2022-09-11T04:45:52.678Z,0.00
2022-09-11T04:46:52.858Z,0.00
2022-09-11T04:47:52.998Z,0.00
2022-09-11T04:48:53.150Z,0.00
2022-09-11T04:49:53.292Z,0.00
2022-09-11T04:50:53.425Z,0.00
2022-09-11T04:51:53.587Z,0.00
2022-09-11T04:52:53.733Z,0.00
2022-09-11T04:53:54.390Z,0.00
2022-09-11T04:54:54.897Z,0.00
2022-09-11T04:55:54.134Z,0.00
2022-09-11T04:56:54.399Z,0.00
2022-09-11T04:57:54.418Z,0.00
2022-09-11T04:58:54.539Z,0.00
2022-09-11T04:59:54.689Z,0.00
2022-09-11T05:00:54.967Z,0.00
2022-09-11T05:01:55.477Z,0.00
2022-09-11T05:02:55.259Z,0.00
2022-09-11T05:03:55.407Z,0.00
2022-09-11T05:04:55.535Z,0.00
2022-09-11T05:05:56.394Z,0.00
2022-09-11T05:06:55.917Z,0.00
2022-09-11T05:07:56.065Z,0.00
2022-09-11T05:08:56.226Z,0.00
2022-09-11T05:09:56.359Z,0.00
2022-09-11T05:10:56.489Z,0.00
2022-09-11T05:11:56.673Z,0.00
2022-09-11T05:12:57.815Z,0.00
2022-09-11T05:13:56.937Z,0.00
2022-09-11T05:14:57.070Z,0.00
2022-09-11T05:15:57.219Z,0.00
2022-09-11T05:16:57.391Z,0.00
2022-09-11T05:17:57.903Z,0.00
2022-09-11T05:18:58.796Z,0.00
2022-09-11T05:19:57.906Z,0.00
2022-09-11T05:20:58.066Z,0.00
2022-09-11T05:21:58.176Z,0.00
2022-09-11T05:22:58.410Z,0.00
2022-09-11T05:23:59.407Z,0.00
2022-09-11T05:24:58.753Z,0.00
2022-09-11T05:25:59.404Z,0.00
2022-09-11T05:26:59.046Z,0.00
2022-09-11T05:27:59.414Z,0.00
2022-09-11T05:28:59.434Z,0.00
2022-09-11T05:30:00.404Z,0.00
2022-09-11T05:30:59.760Z,0.00
2022-09-11T05:32:00.402Z,5.62
2022-09-11T05:33:00.068Z,5.62
2022-09-11T05:34:00.210Z,5.62
2022-09-11T05:35:00.352Z,5.62
2022-09-11T05:36:01.403Z,5.62
2022-09-11T05:37:01.404Z,5.62
2022-09-11T05:38:00.902Z,5.62
2022-09-11T05:39:01.043Z,5.62
2022-09-11T05:40:01.241Z,5.62
2022-09-11T05:41:01.394Z,5.62
2022-09-11T05:42:01.530Z,5.62
2022-09-11T05:43:01.921Z,5.62
2022-09-11T05:44:01.803Z,5.62
2022-09-11T05:45:01.933Z,5.62
2022-09-11T05:46:02.930Z,11.25
2022-09-11T05:47:02.208Z,11.25
2022-09-11T05:48:02.358Z,11.25
2022-09-11T05:49:02.505Z,11.25
2022-09-11T05:50:03.406Z,11.25
2022-09-11T05:51:02.782Z,11.25
2022-09-11T05:52:02.936Z,11.25
2022-09-11T05:53:03.065Z,11.25
2022-09-11T05:54:03.216Z,11.25
2022-09-11T05:55:03.459Z,11.25
2022-09-11T05:56:03.600Z,11.25
2022-09-11T05:57:07.655Z,11.25
2022-09-11T05:58:04.917Z,11.25
2022-09-11T05:59:04.155Z,11.25
2022-09-11T06:00:04.339Z,11.25
2022-09-11T06:01:04.601Z,11.25
2022-09-11T06:02:04.727Z,11.25
2022-09-11T06:03:05.410Z,11.25
2022-09-11T06:04:05.050Z,11.25
2022-09-11T06:05:05.292Z,11.25
2022-09-11T06:06:05.510Z,16.88
2022-09-11T06:07:05.765Z,16.88
2022-09-11T06:08:05.887Z,22.50
2022-09-11T06:09:06.113Z,22.50
2022-09-11T06:10:06.361Z,22.50
2022-09-11T06:11:06.500Z,16.88
2022-09-11T06:12:06.664Z,16.88
2022-09-11T06:13:06.786Z,16.88
2022-09-11T06:14:06.907Z,16.88
2022-09-11T06:15:07.050Z,16.88
2022-09-11T06:16:07.224Z,22.50
2022-09-11T06:17:07.387Z,16.88
2022-09-11T06:18:07.511Z,16.88
2022-09-11T06:19:07.928Z,22.50
2022-09-11T06:20:07.906Z,22.50
2022-09-11T06:21:08.148Z,22.50
2022-09-11T06:22:08.294Z,22.50
2022-09-11T06:23:09.414Z,22.50
2022-09-11T06:24:10.421Z,22.50
2022-09-11T06:25:08.866Z,28.12
2022-09-11T06:26:08.998Z,28.12
2022-09-11T06:27:09.923Z,28.12
2022-09-11T06:28:09.287Z,28.12
2022-09-11T06:29:09.454Z,28.12
2022-09-11T06:30:09.600Z,28.12
2022-09-11T06:31:10.419Z,28.12
2022-09-11T06:32:09.914Z,28.12
2022-09-11T06:33:11.817Z,33.75
2022-09-11T06:34:10.211Z,28.12
2022-09-11T06:35:10.399Z,28.12
2022-09-11T06:36:10.583Z,28.12
2022-09-11T06:37:10.764Z,28.12
2022-09-11T06:38:11.441Z,28.12
2022-09-11T06:39:11.919Z,28.12
2022-09-11T06:40:11.330Z,33.75
2022-09-11T06:41:12.427Z,33.75
2022-09-11T06:42:12.430Z,28.12
2022-09-11T06:43:11.922Z,28.12
2022-09-11T06:44:12.942Z,28.12
2022-09-11T06:45:12.160Z,28.12
2022-09-11T06:46:13.065Z,22.50
2022-09-11T06:47:12.495Z,22.50
2022-09-11T06:48:12.641Z,22.50
2022-09-11T06:49:12.773Z,22.50
2022-09-11T06:50:12.904Z,28.12
2022-09-11T06:51:13.035Z,28.12
2022-09-11T06:52:13.435Z,28.12
2022-09-11T06:53:13.924Z,22.50
2022-09-11T06:54:13.515Z,22.50
2022-09-11T06:55:14.448Z,16.88
2022-09-11T06:56:13.823Z,16.88
2022-09-11T06:57:14.436Z,16.88
2022-09-11T06:58:14.197Z,16.88
2022-09-11T06:59:14.342Z,22.50
2022-09-11T07:00:14.466Z,22.50
2022-09-11T07:01:15.058Z,22.50
2022-09-11T07:02:14.834Z,22.50
2022-09-11T07:03:14.988Z,16.88
2022-09-11T07:04:15.109Z,16.88
2022-09-11T07:05:15.248Z,16.88
2022-09-11T07:06:15.418Z,16.88
2022-09-11T07:07:15.569Z,22.50
2022-09-11T07:08:15.699Z,22.50
2022-09-11T07:09:15.873Z,28.12
2022-09-11T07:10:17.021Z,28.12
2022-09-11T07:11:16.152Z,22.50
2022-09-11T07:12:16.931Z,22.50
2022-09-11T07:13:16.542Z,22.50
2022-09-11T07:14:16.684Z,22.50
2022-09-11T07:15:16.796Z,16.88
2022-09-11T07:16:16.999Z,16.88
2022-09-11T07:17:17.116Z,16.88
2022-09-11T07:18:17.936Z,16.88
2022-09-11T07:19:17.448Z,16.88
2022-09-11T07:20:17.600Z,11.25
2022-09-11T07:21:17.722Z,11.25
2022-09-11T07:22:17.866Z,11.25
2022-09-11T07:23:18.008Z,16.88
2022-09-11T07:24:18.932Z,16.88
2022-09-11T07:25:18.281Z,16.88
2022-09-11T07:26:18.397Z,22.50
2022-09-11T07:27:19.438Z,22.50
2022-09-11T07:28:19.441Z,22.50
2022-09-11T07:29:18.800Z,22.50
2022-09-11T07:30:18.942Z,22.50
2022-09-11T07:31:21.014Z,22.50
2022-09-11T07:32:20.303Z,22.50
2022-09-11T07:33:19.535Z,22.50
2022-09-11T07:34:19.677Z,28.12
2022-09-11T07:35:19.823Z,33.75
2022-09-11T07:36:19.958Z,39.38
2022-09-11T07:37:20.070Z,39.38
2022-09-11T07:38:20.309Z,45.00
2022-09-11T07:39:20.939Z,45.00
2022-09-11T07:40:21.555Z,45.00
2022-09-11T07:41:20.881Z,50.62
2022-09-11T07:42:20.984Z,50.62
2022-09-11T07:43:21.224Z,56.25
2022-09-11T07:44:22.441Z,67.50
2022-09-11T07:45:22.954Z,90.00
2022-09-11T07:46:22.962Z,106.88
2022-09-11T07:47:21.909Z,106.88
2022-09-11T07:48:22.953Z,123.75
2022-09-11T07:49:22.197Z,106.88
2022-09-11T07:50:22.439Z,118.12
2022-09-11T07:51:22.450Z,140.62
2022-09-11T07:52:22.698Z,129.38
2022-09-11T07:53:22.811Z,101.25
2022-09-11T07:54:22.948Z,78.75
2022-09-11T07:55:23.108Z,73.12
2022-09-11T07:56:23.954Z,67.50
2022-09-11T07:57:23.442Z,61.88
2022-09-11T07:58:23.971Z,61.88
2022-09-11T07:59:23.858Z,67.50
2022-09-11T08:00:23.969Z,67.50
2022-09-11T08:01:24.975Z,61.88
2022-09-11T08:02:24.250Z,56.25
2022-09-11T08:03:24.423Z,56.25
2022-09-11T08:04:24.556Z,56.25
2022-09-11T08:05:24.697Z,50.62
2022-09-11T08:06:24.822Z,45.00
2022-09-11T08:07:25.086Z,39.38
2022-09-11T08:08:25.246Z,33.75
2022-09-11T08:09:25.384Z,28.12
2022-09-11T08:10:27.576Z,22.50
2022-09-11T08:11:26.826Z,22.50
2022-09-11T08:12:26.446Z,22.50
2022-09-11T08:13:26.085Z,22.50
2022-09-11T08:14:26.225Z,28.12
2022-09-11T08:15:26.381Z,28.12
2022-09-11T08:16:26.582Z,33.75
2022-09-11T08:17:26.766Z,33.75
2022-09-11T08:18:26.903Z,39.38
2022-09-11T08:19:27.950Z,39.38
2022-09-11T08:20:27.212Z,45.00
2022-09-11T08:21:27.339Z,45.00
2022-09-11T08:22:27.486Z,45.00
2022-09-11T08:23:28.451Z,45.00
2022-09-11T08:24:28.449Z,50.62
2022-09-11T08:25:27.967Z,50.62
2022-09-11T08:26:28.112Z,56.25
2022-09-11T08:27:28.240Z,56.25
2022-09-11T08:28:28.370Z,61.88
2022-09-11T08:29:28.494Z,61.88
2022-09-11T08:30:28.644Z,73.12
2022-09-11T08:31:28.820Z,78.75
2022-09-11T08:32:28.976Z,90.00
2022-09-11T08:33:29.113Z,106.88
2022-09-11T08:34:29.345Z,135.00
2022-09-11T08:35:29.481Z,174.38
2022-09-11T08:36:29.576Z,213.75
2022-09-11T08:37:29.707Z,225.00
2022-09-11T08:38:30.464Z,230.62
2022-09-11T08:39:30.955Z,236.25
2022-09-11T08:40:30.204Z,241.88
2022-09-11T08:41:30.323Z,236.25
2022-09-11T08:42:30.451Z,236.25
2022-09-11T08:43:31.466Z,230.62
2022-09-11T08:44:31.458Z,208.12
2022-09-11T08:45:31.008Z,180.00
2022-09-11T08:46:31.962Z,146.25
2022-09-11T08:47:31.960Z,118.12
2022-09-11T08:48:31.961Z,106.88
2022-09-11T08:49:32.461Z,95.62
2022-09-11T08:50:31.897Z,90.00
2022-09-11T08:51:32.052Z,84.38
2022-09-11T08:52:32.187Z,84.38
2022-09-11T08:53:33.031Z,90.00
2022-09-11T08:54:32.459Z,84.38
2022-09-11T08:55:32.984Z,78.75
2022-09-11T08:56:34.366Z,84.38
2022-09-11T08:57:32.976Z,90.00
2022-09-11T08:58:33.471Z,101.25
2022-09-11T08:59:33.231Z,106.88
2022-09-11T09:00:33.361Z,106.88
2022-09-11T09:01:33.549Z,118.12
2022-09-11T09:02:33.742Z,123.75
2022-09-11T09:03:33.953Z,135.00
2022-09-11T09:04:34.080Z,151.88
2022-09-11T09:05:34.203Z,185.62
2022-09-11T09:06:34.969Z,219.38
2022-09-11T09:07:34.461Z,303.75
2022-09-11T09:08:34.597Z,303.75
2022-09-11T09:09:35.311Z,303.75
2022-09-11T09:10:35.866Z,315.00
2022-09-11T09:11:35.094Z,275.62
2022-09-11T09:12:35.967Z,258.75
2022-09-11T09:13:35.356Z,264.38
2022-09-11T09:14:35.541Z,286.88
2022-09-11T09:15:35.723Z,253.12
2022-09-11T09:16:35.882Z,253.12
2022-09-11T09:17:36.972Z,191.25
2022-09-11T09:18:36.316Z,191.25
2022-09-11T09:19:36.485Z,213.75
2022-09-11T09:20:37.612Z,208.12
2022-09-11T09:21:36.828Z,264.38
2022-09-11T09:22:36.965Z,219.38
2022-09-11T09:23:37.080Z,213.75
2022-09-11T09:24:37.201Z,208.12
2022-09-11T09:25:37.316Z,185.62
2022-09-11T09:26:38.534Z,168.75
2022-09-11T09:27:38.656Z,151.88
2022-09-11T09:28:37.875Z,146.25
2022-09-11T09:29:38.113Z,129.38
2022-09-11T09:30:38.321Z,118.12
2022-09-11T09:31:38.546Z,106.88
2022-09-11T09:32:38.784Z,101.25
2022-09-11T09:33:38.963Z,90.00
2022-09-11T09:34:39.977Z,78.75
2022-09-11T09:35:39.317Z,78.75
2022-09-11T09:36:40.008Z,73.12
2022-09-11T09:37:39.743Z,67.50
2022-09-11T09:38:39.871Z,67.50
2022-09-11T09:39:40.071Z,67.50
2022-09-11T09:40:40.226Z,73.12
2022-09-11T09:41:40.376Z,78.75
2022-09-11T09:42:40.506Z,84.38
2022-09-11T09:43:41.551Z,90.00
2022-09-11T09:44:40.841Z,95.62
2022-09-11T09:45:41.033Z,101.25
2022-09-11T09:46:41.211Z,101.25
2022-09-11T09:47:41.363Z,106.88
2022-09-11T09:48:41.562Z,112.50
2022-09-11T09:49:41.719Z,191.25
2022-09-11T09:50:42.480Z,225.00
2022-09-11T09:51:42.000Z,241.88
2022-09-11T09:52:42.129Z,225.00
2022-09-11T09:53:42.286Z,253.12
2022-09-11T09:54:42.472Z,202.50
2022-09-11T09:55:42.630Z,202.50
2022-09-11T09:56:42.997Z,213.75
2022-09-11T09:57:42.877Z,202.50
2022-09-11T09:58:43.076Z,202.50
2022-09-11T09:59:43.185Z,191.25
2022-09-11T10:00:43.332Z,135.00
2022-09-11T10:01:43.575Z,112.50
2022-09-11T10:02:44.499Z,106.88
2022-09-11T10:03:45.499Z,112.50
2022-09-11T10:04:44.094Z,118.12
2022-09-11T10:05:44.239Z,202.50
2022-09-11T10:06:44.368Z,225.00
2022-09-11T10:07:45.523Z,174.38
2022-09-11T10:08:45.484Z,151.88
2022-09-11T10:09:44.883Z,135.00
2022-09-11T10:10:45.997Z,123.75
2022-09-11T10:11:45.255Z,185.62
2022-09-11T10:12:45.992Z,180.00
2022-09-11T10:13:45.631Z,213.75
2022-09-11T10:14:52.902Z,196.88
2022-09-11T10:15:47.997Z,241.88
2022-09-11T10:16:46.132Z,264.38
2022-09-11T10:17:46.993Z,270.00
2022-09-11T10:18:46.495Z,270.00
2022-09-11T10:19:47.493Z,270.00
2022-09-11T10:20:47.526Z,298.12
2022-09-11T10:21:47.056Z,315.00
2022-09-11T10:22:48.990Z,196.88
2022-09-11T10:23:48.007Z,247.50
2022-09-11T10:24:47.497Z,241.88
2022-09-11T10:25:48.496Z,202.50
2022-09-11T10:26:47.891Z,174.38
2022-09-11T10:27:47.980Z,230.62
2022-09-11T10:28:48.093Z,180.00
2022-09-11T10:29:48.995Z,174.38
2022-09-11T10:30:48.503Z,146.25
2022-09-11T10:31:48.672Z,140.62
2022-09-11T10:32:48.793Z,135.00
2022-09-11T10:33:49.050Z,123.75
2022-09-11T10:34:49.191Z,118.12
2022-09-11T10:35:50.000Z,112.50
2022-09-11T10:36:50.014Z,106.88
2022-09-11T10:37:49.624Z,101.25
2022-09-11T10:38:49.784Z,196.88
2022-09-11T10:39:49.986Z,213.75
2022-09-11T10:40:51.007Z,140.62
2022-09-11T10:41:50.380Z,213.75
2022-09-11T10:42:51.011Z,213.75
2022-09-11T10:43:50.787Z,168.75
2022-09-11T10:44:51.515Z,112.50
2022-09-11T10:45:51.162Z,95.62
2022-09-11T10:46:51.308Z,90.00
2022-09-11T10:47:52.466Z,78.75
2022-09-11T10:48:51.612Z,73.12
2022-09-11T10:49:51.768Z,67.50
2022-09-11T10:50:51.928Z,61.88
2022-09-11T10:51:53.108Z,56.25
2022-09-11T10:52:52.513Z,56.25
2022-09-11T10:53:52.433Z,61.88
2022-09-11T10:54:52.596Z,67.50
2022-09-11T10:55:52.767Z,84.38
2022-09-11T10:56:53.503Z,90.00
2022-09-11T10:57:53.113Z,146.25
2022-09-11T10:58:55.068Z,202.50
2022-09-11T10:59:54.547Z,208.12
2022-09-11T11:00:54.020Z,213.75
2022-09-11T11:01:53.945Z,225.00
2022-09-11T11:02:54.039Z,191.25
2022-09-11T11:03:55.008Z,225.00
2022-09-11T11:04:55.904Z,236.25
2022-09-11T11:05:54.542Z,247.50
2022-09-11T11:06:55.536Z,253.12
2022-09-11T11:07:54.911Z,270.00
2022-09-11T11:08:56.047Z,270.00
2022-09-11T11:09:56.007Z,253.12
2022-09-11T11:10:56.018Z,180.00
2022-09-11T11:11:55.669Z,163.12
2022-09-11T11:12:56.509Z,157.50
2022-09-11T11:13:55.999Z,140.62
2022-09-11T11:14:56.179Z,118.12
2022-09-11T11:15:57.048Z,95.62
2022-09-11T11:16:56.497Z,90.00
2022-09-11T11:17:56.633Z,84.38
2022-09-11T11:18:57.544Z,84.38
2022-09-11T11:19:56.917Z,84.38
2022-09-11T11:20:57.054Z,84.38
2022-09-11T11:21:57.260Z,84.38
2022-09-11T11:22:57.532Z,84.38
2022-09-11T11:23:57.571Z,84.38
2022-09-11T11:24:58.518Z,90.00
2022-09-11T11:25:58.513Z,90.00
2022-09-11T11:26:58.133Z,163.12
2022-09-11T11:27:58.306Z,196.88
2022-09-11T11:28:59.022Z,208.12
2022-09-11T11:29:58.644Z,219.38
2022-09-11T11:30:59.546Z,140.62
2022-09-11T11:31:59.066Z,230.62
2022-09-11T11:32:59.238Z,225.00
2022-09-11T11:33:59.381Z,219.38
2022-09-11T11:34:59.571Z,213.75
2022-09-11T11:35:59.748Z,140.62
2022-09-11T11:37:00.034Z,123.75
2022-09-11T11:38:00.065Z,123.75
2022-09-11T11:39:00.303Z,123.75
2022-09-11T11:40:00.592Z,106.88
2022-09-11T11:41:00.627Z,95.62
2022-09-11T11:42:01.521Z,90.00
2022-09-11T11:43:01.524Z,95.62
2022-09-11T11:44:01.162Z,101.25
2022-09-11T11:45:01.540Z,106.88
2022-09-11T11:46:02.078Z,112.50
2022-09-11T11:47:01.631Z,112.50
2022-09-11T11:48:01.768Z,112.50
2022-09-11T11:49:02.526Z,123.75
2022-09-11T11:50:02.199Z,264.38
2022-09-11T11:51:02.415Z,225.00
2022-09-11T11:52:02.589Z,140.62
2022-09-11T11:53:02.749Z,123.75
2022-09-11T11:54:02.920Z,112.50
2022-09-11T11:55:04.031Z,106.88
2022-09-11T11:56:03.309Z,101.25
2022-09-11T11:57:03.553Z,95.62
2022-09-11T11:58:03.748Z,84.38
2022-09-11T11:59:03.900Z,78.75
2022-09-11T12:00:04.539Z,78.75
2022-09-11T12:01:05.029Z,78.75
2022-09-11T12:02:05.070Z,84.38
2022-09-11T12:03:04.627Z,84.38
2022-09-11T12:04:04.793Z,90.00
2022-09-11T12:05:04.925Z,95.62
2022-09-11T12:06:05.077Z,106.88
2022-09-11T12:07:05.229Z,191.25
2022-09-11T12:08:05.549Z,185.62
2022-09-11T12:09:05.586Z,157.50
2022-09-11T12:10:05.736Z,157.50
2022-09-11T12:11:05.906Z,140.62
2022-09-11T12:12:06.081Z,140.62
2022-09-11T12:13:06.271Z,135.00
2022-09-11T12:14:06.409Z,123.75
2022-09-11T12:15:06.574Z,118.12
2022-09-11T12:16:11.045Z,236.25
2022-09-11T12:17:07.937Z,202.50
2022-09-11T12:18:07.201Z,163.12
2022-09-11T12:19:07.356Z,106.88
2022-09-11T12:20:08.034Z,106.88
2022-09-11T12:21:07.734Z,106.88
2022-09-11T12:22:07.908Z,101.25
2022-09-11T12:23:08.102Z,101.25
2022-09-11T12:24:09.034Z,95.62
2022-09-11T12:25:08.429Z,90.00
2022-09-11T12:26:08.635Z,95.62
2022-09-11T12:27:11.676Z,101.25
2022-09-11T12:28:10.068Z,95.62
2022-09-11T12:29:10.050Z,129.38
2022-09-11T12:30:09.325Z,208.12
2022-09-11T12:31:09.565Z,180.00
2022-09-11T12:32:09.633Z,140.62
2022-09-11T12:33:10.549Z,230.62
2022-09-11T12:34:09.912Z,247.50
2022-09-11T12:35:10.088Z,129.38
2022-09-11T12:36:10.213Z,112.50
2022-09-11T12:37:10.357Z,106.88
2022-09-11T12:38:10.500Z,101.25
2022-09-11T12:39:10.654Z,95.62
2022-09-11T12:40:10.851Z,95.62
2022-09-11T12:41:10.940Z,90.00
2022-09-11T12:42:12.056Z,90.00
2022-09-11T12:43:11.303Z,95.62
2022-09-11T12:44:11.489Z,95.62
2022-09-11T12:45:11.653Z,95.62
2022-09-11T12:46:11.814Z,101.25
2022-09-11T12:47:11.980Z,101.25
2022-09-11T12:48:12.128Z,101.25
2022-09-11T12:49:22.649Z,101.25
2022-09-11T12:50:14.394Z,106.88
2022-09-11T12:51:12.632Z,118.12
2022-09-11T12:52:12.754Z,140.62
2022-09-11T12:53:13.880Z,146.25
2022-09-11T12:54:13.142Z,157.50
2022-09-11T12:55:13.316Z,174.38
2022-09-11T12:56:13.442Z,140.62
2022-09-11T12:57:14.056Z,129.38
2022-09-11T12:58:13.806Z,118.12
2022-09-11T12:59:13.978Z,112.50